Time;durP1;ratioP1;P1;durP2;ratioP2;P2;SDS_P1;SDS_P2;PMS_P1;PMS_P2;Temp;Humidity;BMP_temperature;BMP_pressure;BME280_temperature;BME280_humidity;BME280_pressure;Samples;Min_cycle;Max_cycle;Signal;HPM_P1;HPM_P2
2024/01/28 16:29:06;;;;;;;4.80;2.80;;;5.80;95.70;;;;;;7614661;19;20371;-67
2024/01/28 16:31:41;;;;;;;5.77;2.70;;;5.10;96.40;;;;;;7621415;19;20025;-67
2024/01/28 16:34:14;;;;;;;3.97;2.72;;;5.00;97.50;;;;;;7613947;19;20283;-66
2024/01/28 16:36:46;;;;;;;11.98;5.05;;;4.90;98.60;;;;;;7602808;19;20018;-67
2024/01/28 16:39:19;;;;;;;4.97;2.92;;;4.80;99.30;;;;;;7580986;19;20145;-67
2024/01/28 16:41:52;;;;;;;9.88;3.80;;;4.80;99.90;;;;;;7596716;19;20045;-66
2024/01/28 16:44:24;;;;;;;10.90;5.97;;;4.70;99.90;;;;;;7585011;19;20029;-66
2024/01/28 16:46:57;;;;;;;12.82;7.50;;;4.80;99.90;;;;;;7600888;19;20014;-67
2024/01/28 16:49:29;;;;;;;12.85;6.75;;;4.80;99.90;;;;;;7600929;19;20025;-67
2024/01/28 16:52:02;;;;;;;12.60;6.63;;;4.80;99.90;;;;;;7596843;19;20358;-67
2024/01/28 16:54:34;;;;;;;8.97;5.60;;;4.70;99.90;;;;;;7591011;19;20034;-67
2024/01/28 16:57:07;;;;;;;13.75;5.38;;;4.70;99.90;;;;;;7601340;19;20307;-66
2024/01/28 16:59:39;;;;;;;13.27;6.77;;;4.60;99.90;;;;;;6595681;19;10000118;-66
2024/01/28 17:02:11;;;;;;;16.02;7.20;;;4.60;99.90;;;;;;7625148;19;20615;-66
2024/01/28 17:04:43;;;;;;;10.38;5.80;;;4.50;99.90;;;;;;7627847;19;20021;-66
2024/01/28 17:07:16;;;;;;;9.30;4.50;;;4.50;99.90;;;;;;7606457;19;20014;-66
2024/01/28 17:09:48;;;;;;;11.35;4.63;;;4.40;99.90;;;;;;7601110;19;20128;-66
2024/01/28 17:12:21;;;;;;;8.02;4.82;;;4.30;99.90;;;;;;7590376;19;20014;-67
2024/01/28 17:14:53;;;;;;;9.05;4.30;;;4.20;99.90;;;;;;7593656;19;20579;-66
2024/01/28 17:17:26;;;;;;;7.57;3.95;;;4.20;99.90;;;;;;7588136;19;20018;-67
2024/01/28 17:19:58;;;;;;;10.88;4.55;;;4.10;99.90;;;;;;7602510;19;20017;-67
2024/01/28 17:22:31;;;;;;;7.03;3.97;;;4.00;99.90;;;;;;7596237;19;20026;-67
2024/01/28 17:25:03;;;;;;;6.57;3.70;;;3.90;99.90;;;;;;7587997;19;20730;-67
2024/01/28 17:27:36;;;;;;;6.20;3.45;;;3.90;99.90;;;;;;7576951;19;20014;-67
2024/01/28 17:30:09;;;;;;;6.00;3.90;;;3.70;99.90;;;;;;7591691;19;20054;-66
2024/01/28 17:32:41;;;;;;;9.33;4.10;;;3.60;99.90;;;;;;7587607;19;20517;-67
2024/01/28 17:35:14;;;;;;;14.18;4.25;;;3.50;99.90;;;;;;7589217;19;20116;-67
2024/01/28 17:37:48;;;;;;;11.68;5.50;;;3.50;99.90;;;;;;7608384;19;21687;-67
2024/01/28 17:40:21;;;;;;;12.63;5.82;;;3.40;99.90;;;;;;7563881;19;20021;-68
2024/01/28 17:42:53;;;;;;;14.40;5.95;;;3.20;99.90;;;;;;7563127;19;20009;-67
2024/01/28 17:45:25;;;;;;;10.20;5.38;;;3.20;99.90;;;;;;7563026;19;20028;-67
2024/01/28 17:47:58;;;;;;;14.45;7.30;;;3.20;99.90;;;;;;7548133;19;20014;-68
2024/01/28 17:50:30;;;;;;;15.48;8.27;;;3.20;99.90;;;;;;7571522;19;20074;-68
2024/01/28 17:53:03;;;;;;;14.27;7.43;;;3.00;99.90;;;;;;7565419;19;20073;-67
2024/01/28 17:55:36;;;;;;;;;;;3.00;99.90;;;;;;7565308;19;20021;-67
2024/01/28 17:58:09;;;;;;;18.55;10.15;;;2.90;99.90;;;;;;7575233;19;19918;-66
2024/01/28 18:00:41;;;;;;;17.20;7.90;;;2.80;99.90;;;;;;7558099;19;20102;-66
2024/01/28 18:03:13;;;;;;;17.30;8.75;;;2.70;99.90;;;;;;7561093;19;20179;-66
2024/01/28 18:05:46;;;;;;;15.60;8.90;;;2.60;99.90;;;;;;7581487;19;21183;-67
2024/01/28 18:08:18;;;;;;;14.10;8.57;;;2.70;99.90;;;;;;7546601;19;20015;-67
2024/01/28 18:10:51;;;;;;;;;;;2.70;99.90;;;;;;7563365;19;20017;-67
2024/01/28 18:13:24;;;;;;;14.02;8.98;;;2.60;99.90;;;;;;7565154;19;20013;-67
2024/01/28 18:15:57;;;;;;;15.20;8.18;;;2.50;99.90;;;;;;7567748;19;21682;-66
2024/01/28 18:18:29;;;;;;;12.38;7.82;;;2.50;99.90;;;;;;7565307;19;20021;-67
2024/01/28 18:21:02;;;;;;;16.02;7.07;;;2.30;99.90;;;;;;7573028;19;20022;-67
2024/01/28 18:23:39;;;;;;;11.63;6.43;;;2.30;99.90;;;;;;7564662;19;20014;-66
2024/01/28 18:26:12;;;;;;;11.15;6.43;;;2.40;99.90;;;;;;7577187;19;20868;-66
2024/01/28 18:28:44;;;;;;;11.68;7.75;;;2.30;99.90;;;;;;7566017;19;20022;-67
2024/01/28 18:31:17;;;;;;;13.48;7.75;;;2.30;99.90;;;;;;7569063;19;20645;-66
2024/01/28 18:33:51;;;;;;;11.63;7.32;;;2.10;99.90;;;;;;7564006;19;21000;-67
2024/01/28 18:36:26;;;;;;;13.98;7.88;;;2.10;99.90;;;;;;7560969;19;20065;-67
2024/01/28 18:39:04;;;;;;;12.93;6.95;;;2.10;99.90;;;;;;7553348;19;20010;-67
2024/01/28 18:41:36;;;;;;;12.55;7.20;;;2.10;99.90;;;;;;7559956;19;20196;-65
2024/01/28 18:44:10;;;;;;;12.13;6.60;;;2.10;99.90;;;;;;7577279;19;20003;-67
2024/01/28 18:46:42;;;;;;;15.80;7.88;;;2.20;99.90;;;;;;7570934;19;20585;-66
2024/01/28 18:49:16;;;;;;;20.27;8.25;;;2.10;99.90;;;;;;7565677;19;20026;-66
2024/01/28 18:51:48;;;;;;;15.95;8.32;;;2.10;99.90;;;;;;7576423;19;20018;-67
2024/01/28 18:54:21;;;;;;;20.55;9.63;;;1.90;99.90;;;;;;7578314;19;20045;-66
2024/01/28 18:56:53;;;;;;;23.30;10.70;;;1.80;99.90;;;;;;7584714;19;20011;-66
2024/01/28 18:59:26;;;;;;;23.55;12.25;;;1.80;99.90;;;;;;7579990;19;20030;-67
2024/01/28 19:01:59;;;;;;;25.73;13.55;;;1.80;99.90;;;;;;7573370;19;20018;-67
2024/01/28 19:04:31;;;;;;;32.20;14.90;;;1.80;99.90;;;;;;7585340;19;20014;-67
2024/01/28 19:07:04;;;;;;;27.03;13.93;;;1.80;99.90;;;;;;7571617;19;20022;-66
2024/01/28 19:09:36;;;;;;;25.23;13.40;;;1.60;99.90;;;;;;7580340;19;20024;-67
2024/01/28 19:12:08;;;;;;;27.55;13.40;;;1.70;99.90;;;;;;7586169;19;20025;-67
2024/01/28 19:14:41;;;;;;;42.13;18.20;;;1.60;99.90;;;;;;7577859;19;20947;-67
2024/01/28 19:17:13;;;;;;;49.88;17.88;;;1.60;99.90;;;;;;7599585;19;20007;-66
2024/01/28 19:19:48;;;;;;;65.47;22.17;;;1.60;99.90;;;;;;7575816;19;21545;-66
2024/01/28 19:22:20;;;;;;;56.03;22.95;;;1.50;99.90;;;;;;7591966;19;20694;-66
2024/01/28 19:24:52;;;;;;;59.80;23.35;;;1.40;99.90;;;;;;7593764;19;20515;-66
2024/01/28 19:27:25;;;;;;;74.03;26.42;;;1.30;99.90;;;;;;7590915;19;20023;-69
2024/01/28 19:29:57;;;;;;;76.47;29.30;;;1.30;99.90;;;;;;7591386;19;20010;-66
2024/01/28 19:32:31;;;;;;;53.42;23.05;;;1.40;99.90;;;;;;7588323;19;20026;-66
2024/01/28 19:35:03;;;;;;;41.88;21.13;;;1.40;99.90;;;;;;7591036;19;20232;-66
2024/01/28 19:37:36;;;;;;;40.63;20.30;;;1.40;99.90;;;;;;7597360;19;20014;-66
2024/01/28 19:40:09;;;;;;;39.75;19.27;;;1.30;99.90;;;;;;7586522;19;20467;-66
2024/01/28 19:42:42;;;;;;;32.35;17.50;;;1.30;99.90;;;;;;7590310;19;21044;-66
2024/01/28 19:45:14;;;;;;;30.83;16.05;;;1.40;99.90;;;;;;7572914;19;20030;-66
2024/01/28 19:47:46;;;;;;;32.83;18.70;;;1.30;99.90;;;;;;7567153;19;20720;-68
2024/01/28 19:50:19;;;;;;;44.33;21.13;;;1.40;99.90;;;;;;7582389;19;20003;-67
2024/01/28 19:52:51;;;;;;;40.55;18.80;;;1.20;99.90;;;;;;7579309;19;20026;-67
2024/01/28 19:55:24;;;;;;;33.60;17.42;;;1.10;99.90;;;;;;7592504;19;20026;-67
2024/01/28 19:57:56;;;;;;;42.58;19.20;;;1.10;99.90;;;;;;7588440;19;20056;-67
2024/01/28 20:00:28;;;;;;;41.97;19.35;;;1.10;99.90;;;;;;7576550;19;20078;-67
2024/01/28 20:03:02;;;;;;;32.35;17.30;;;1.10;99.90;;;;;;7586402;19;20160;-66
2024/01/28 20:05:34;;;;;;;27.20;14.52;;;1.10;99.90;;;;;;7568088;19;20023;-67
2024/01/28 20:08:07;;;;;;;31.13;15.43;;;1.10;99.90;;;;;;7592578;19;20025;-67
2024/01/28 20:10:39;;;;;;;27.95;14.52;;;1.10;99.90;;;;;;7579306;19;20010;-66
2024/01/28 20:13:11;;;;;;;30.08;13.23;;;1.00;99.90;;;;;;7590131;19;20018;-67
2024/01/28 20:15:48;;;;;;;30.48;14.93;;;1.00;99.90;;;;;;7593457;19;20587;-67
2024/01/28 20:18:22;;;;;;;29.27;13.98;;;1.00;99.90;;;;;;7584136;19;20021;-67
2024/01/28 20:20:55;;;;;;;29.60;15.20;;;1.10;99.90;;;;;;7579255;19;20619;-67
2024/01/28 20:23:28;;;;;;;27.98;14.32;;;1.00;99.90;;;;;;7587503;19;20014;-66
2024/01/28 20:26:00;;;;;;;21.85;12.02;;;1.00;99.90;;;;;;7592981;19;20018;-67
2024/01/28 20:28:32;;;;;;;17.67;10.75;;;0.90;99.90;;;;;;7563483;19;20014;-66
2024/01/28 20:31:05;;;;;;;20.25;11.50;;;0.90;99.90;;;;;;7576489;19;21363;-67
